Time;durP1;ratioP1;P1;durP2;ratioP2;P2;SDS_P1;SDS_P2;PMS_P1;PMS_P2;Temp;Humidity;BMP_temperature;BMP_pressure;BME280_temperature;BME280_humidity;BME280_pressure;Samples;Min_cycle;Max_cycle;Signal;HPM_P1;HPM_P2
2022/10/19 06:15:25;;;;;;;57.22;15.55;;;14.60;99.90;;;;;;4888046;29;20053;-81
2022/10/19 06:17:51;;;;;;;151.27;17.55;;;14.60;99.90;;;;;;4900639;29;20115;-81
2022/10/19 06:20:18;;;;;;;106.93;15.73;;;14.60;99.90;;;;;;4902692;29;20063;-81
2022/10/19 06:22:45;;;;;;;90.57;15.48;;;14.60;99.90;;;;;;4903082;29;20053;-79
2022/10/19 06:25:12;;;;;;;80.75;14.80;;;14.60;99.90;;;;;;4894324;29;20053;-80
2022/10/19 06:27:45;;;;;;;56.20;15.38;;;14.60;99.90;;;;;;4888876;29;20053;-80
2022/10/19 06:30:12;;;;;;;83.78;16.27;;;14.60;99.90;;;;;;4883975;29;20771;-80
2022/10/19 06:32:39;;;;;;;120.70;17.48;;;14.60;99.90;;;;;;4896315;29;20049;-81
2022/10/19 06:35:06;;;;;;;62.97;14.80;;;14.60;99.90;;;;;;4892647;29;20059;-80
2022/10/19 06:37:33;;;;;;;72.85;14.70;;;14.60;99.90;;;;;;4887601;29;20052;-79
2022/10/19 06:40:00;;;;;;;64.32;16.00;;;14.70;99.90;;;;;;4887589;29;20052;-80
2022/10/19 06:42:32;;;;;;;66.22;15.43;;;14.70;99.90;;;;;;4897688;29;20052;-79
2022/10/19 06:44:59;;;;;;;72.47;15.20;;;14.70;99.90;;;;;;4895193;29;20049;-81
2022/10/19 06:47:30;;;;;;;98.53;15.95;;;14.70;99.90;;;;;;4890677;29;20061;-81
2022/10/19 06:49:57;;;;;;;71.93;14.98;;;14.70;99.90;;;;;;4898872;29;20060;-79
2022/10/19 06:52:23;;;;;;;90.72;14.15;;;14.70;99.90;;;;;;4894937;29;20444;-80
2022/10/19 06:54:50;;;;;;;69.05;13.35;;;14.60;99.90;;;;;;4887599;29;20143;-80
2022/10/19 06:57:17;;;;;;;71.55;14.65;;;14.70;99.90;;;;;;4886007;29;20139;-81
2022/10/19 06:59:43;;;;;;;125.65;16.52;;;14.60;99.90;;;;;;4896905;29;20139;-81
2022/10/19 07:02:10;;;;;;;88.43;15.57;;;14.70;99.90;;;;;;4883300;29;20056;-81
2022/10/19 07:04:37;;;;;;;155.18;19.48;;;14.70;99.90;;;;;;4886232;29;20574;-80
2022/10/19 07:07:04;;;;;;;123.40;18.55;;;14.70;99.90;;;;;;4891889;29;20052;-80
2022/10/19 07:09:31;;;;;;;81.20;17.77;;;14.80;99.90;;;;;;4888924;29;20139;-80
2022/10/19 07:11:57;;;;;;;66.45;15.40;;;14.80;99.90;;;;;;4885941;29;20057;-81
2022/10/19 07:14:27;;;;;;;61.30;15.80;;;14.80;99.90;;;;;;4884687;29;20136;-81
2022/10/19 07:16:54;;;;;;;89.20;12.80;;;14.90;99.90;;;;;;4894395;29;20048;-81
2022/10/19 07:19:24;;;;;;;41.22;12.82;;;15.00;99.90;;;;;;4893272;29;20286;-81
2022/10/19 07:21:51;;;;;;;86.78;14.20;;;15.00;99.90;;;;;;4887453;29;20672;-80
2022/10/19 07:24:18;;;;;;;77.80;13.57;;;15.00;99.90;;;;;;4887301;29;20049;-81
2022/10/19 07:26:45;;;;;;;116.18;14.25;;;15.00;99.90;;;;;;4894978;29;20053;-80
2022/10/19 07:29:12;;;;;;;78.45;12.55;;;15.00;99.90;;;;;;4888061;29;20430;-81
2022/10/19 07:31:38;;;;;;;62.38;11.52;;;15.00;99.90;;;;;;4884002;29;20049;-80
2022/10/19 07:34:05;;;;;;;61.92;11.40;;;15.10;99.90;;;;;;4897183;29;20080;-79
2022/10/19 07:36:34;;;;;;;29.25;9.95;;;15.10;99.90;;;;;;4900288;29;20057;-81
2022/10/19 07:39:01;;;;;;;21.02;10.40;;;15.10;99.90;;;;;;4893361;29;20131;-78
2022/10/19 07:41:28;;;;;;;20.00;9.35;;;15.20;99.90;;;;;;4890613;29;20077;-80
2022/10/19 07:43:56;;;;;;;21.20;9.25;;;15.30;99.90;;;;;;4891605;29;20476;-79
2022/10/19 07:46:27;;;;;;;19.88;10.23;;;15.30;99.90;;;;;;4889910;29;20049;-78
2022/10/19 07:48:54;;;;;;;17.05;9.07;;;15.40;99.90;;;;;;4886888;29;20053;-81
2022/10/19 07:51:21;;;;;;;16.73;9.27;;;15.40;99.90;;;;;;4884392;29;20055;-80
2022/10/19 07:53:48;;;;;;;16.80;8.88;;;15.50;99.90;;;;;;4884775;29;20135;-80
2022/10/19 07:56:21;;;;;;;17.23;8.65;;;15.60;99.90;;;;;;4886867;29;20132;-79
2022/10/19 07:58:53;;;;;;;21.33;8.68;;;15.60;99.90;;;;;;4879252;29;20044;-81
2022/10/19 08:01:23;;;;;;;27.83;9.25;;;15.70;99.90;;;;;;4885483;29;20048;-80
2022/10/19 08:03:52;;;;;;;25.42;8.82;;;15.70;99.90;;;;;;4895982;29;20076;-80
2022/10/19 08:06:39;;;;;;;17.17;8.27;;;15.70;99.90;;;;;;4888663;29;20051;-79
2022/10/19 08:09:06;;;;;;;19.73;9.35;;;15.80;99.90;;;;;;4897966;29;20083;-81
2022/10/19 08:11:34;;;;;;;21.40;8.20;;;15.80;99.90;;;;;;4876145;29;20124;-80
2022/10/19 08:14:02;;;;;;;27.38;10.18;;;15.80;99.90;;;;;;4877033;29;20049;-80
2022/10/19 08:16:43;;;;;;;39.97;8.40;;;15.90;99.90;;;;;;4878028;29;20060;-81
2022/10/19 08:19:13;;;;;;;20.70;8.82;;;15.80;99.90;;;;;;4882494;29;20619;-81
2022/10/19 08:21:42;;;;;;;15.37;9.20;;;15.80;99.90;;;;;;4885766;29;20409;-79
2022/10/19 08:24:11;;;;;;;18.10;9.27;;;15.80;99.90;;;;;;4902958;23;20053;-84
2022/10/19 08:26:39;;;;;;;16.15;8.50;;;15.80;99.90;;;;;;4901029;29;20049;-85
2022/10/19 08:29:11;;;;;;;17.27;11.20;;;15.70;99.90;;;;;;4900704;29;20053;-82
2022/10/19 08:31:38;;;;;;;16.90;9.30;;;15.70;99.90;;;;;;4896301;29;20086;-84
2022/10/19 08:34:06;;;;;;;14.82;8.82;;;15.70;99.90;;;;;;4893059;29;20514;-84
2022/10/19 08:36:34;;;;;;;14.27;9.32;;;15.80;99.90;;;;;;4877734;29;20061;-84
2022/10/19 08:39:03;;;;;;;21.08;9.98;;;15.80;99.90;;;;;;4877063;29;20049;-84
2022/10/19 08:41:30;;;;;;;15.63;9.07;;;15.90;99.90;;;;;;4889878;29;20054;-83
2022/10/19 08:44:16;;;;;;;15.07;9.30;;;15.90;99.90;;;;;;4874937;29;20045;-85
2022/10/19 08:47:01;;;;;;;16.90;8.93;;;16.00;99.90;;;;;;4875070;29;20059;-83
2022/10/19 08:49:31;;;;;;;13.30;8.68;;;16.00;99.90;;;;;;4874959;29;20073;-83
2022/10/19 08:52:02;;;;;;;17.38;8.77;;;15.90;99.90;;;;;;4884072;29;20059;-84
2022/10/19 08:54:42;;;;;;;12.93;8.57;;;16.00;99.90;;;;;;4875415;29;20053;-83
2022/10/19 08:57:24;;;;;;;16.45;9.10;;;15.90;99.90;;;;;;4874436;29;20049;-83
2022/10/19 09:00:19;;;;;;;20.80;9.35;;;16.00;99.90;;;;;;4873633;29;20068;-80
2022/10/19 09:02:55;;;;;;;18.00;9.65;;;15.80;99.90;;;;;;4869188;29;20053;-83
2022/10/19 09:05:28;;;;;;;19.50;9.55;;;15.80;99.90;;;;;;4876328;29;20057;-83
2022/10/19 09:07:55;;;;;;;18.58;9.23;;;15.80;99.90;;;;;;4876068;29;20522;-84
2022/10/19 09:10:31;;;;;;;13.45;8.77;;;15.70;99.90;;;;;;4877713;29;20428;-83
2022/10/19 09:13:03;;;;;;;10.68;8.30;;;15.80;99.90;;;;;;4874541;29;20057;-83
2022/10/19 09:15:37;;;;;;;15.27;8.50;;;15.80;99.90;;;;;;4880916;29;20395;-85
2022/10/19 09:18:12;;;;;;;13.63;8.45;;;15.90;99.90;;;;;;4879833;29;20055;-84
2022/10/19 09:20:43;;;;;;;16.58;10.13;;;16.00;99.90;;;;;;4877573;29;20124;-83
2022/10/19 09:23:21;;;;;;;12.38;8.80;;;16.00;99.90;;;;;;4875798;29;20116;-83
2022/10/19 09:25:49;;;;;;;12.23;7.72;;;16.10;99.90;;;;;;4873288;29;20141;-82
2022/10/19 09:28:30;;;;;;;14.65;7.65;;;16.20;99.90;;;;;;4877717;29;20049;-84
2022/10/19 09:31:10;;;;;;;10.93;7.88;;;16.20;99.90;;;;;;4874801;29;20113;-82
2022/10/19 09:33:39;;;;;;;14.10;8.63;;;16.20;99.90;;;;;;4877884;29;20145;-83
2022/10/19 09:36:07;;;;;;;14.77;9.02;;;16.30;99.90;;;;;;4876230;29;20057;-83
2022/10/19 09:38:34;;;;;;;16.27;9.15;;;16.30;99.90;;;;;;4876223;29;20056;-83
2022/10/19 09:41:17;;;;;;;19.25;9.00;;;16.20;99.90;;;;;;4873258;29;20060;-83
2022/10/19 09:43:51;;;;;;;16.38;8.88;;;16.30;99.90;;;;;;4878603;29;20044;-84
2022/10/19 09:46:38;;;;;;;15.07;9.35;;;16.30;99.90;;;;;;4874100;29;20782;-84
2022/10/19 09:49:05;;;;;;;13.30;8.63;;;16.20;99.90;;;;;;4876075;29;20045;-81
2022/10/19 09:51:43;;;;;;;13.25;8.63;;;16.20;99.90;;;;;;4878546;29;20495;-81
2022/10/19 09:54:32;;;;;;;13.82;7.78;;;16.20;99.90;;;;;;4871657;29;20053;-83
2022/10/19 09:56:58;;;;;;;15.68;8.95;;;16.20;99.90;;;;;;4873564;29;20053;-82
2022/10/19 09:59:31;;;;;;;13.48;8.70;;;16.30;99.90;;;;;;4874815;29;20597;-84
2022/10/19 10:02:16;;;;;;;10.82;7.80;;;16.30;99.90;;;;;;4874464;29;20060;-82
2022/10/19 10:04:55;;;;;;;14.05;8.38;;;16.40;99.90;;;;;;4881040;29;20136;-80
2022/10/19 10:07:28;;;;;;;14.20;8.40;;;16.50;99.90;;;;;;4874853;29;20059;-83
2022/10/19 10:09:55;;;;;;;13.93;8.85;;;16.50;99.90;;;;;;4880586;29;20059;-84
2022/10/19 10:12:22;;;;;;;13.07;8.98;;;16.50;99.90;;;;;;4876181;29;20133;-82
2022/10/19 10:14:50;;;;;;;13.52;8.27;;;16.50;99.90;;;;;;4873661;29;20075;-83
2022/10/19 10:17:20;;;;;;;15.38;8.55;;;16.50;99.90;;;;;;4875036;29;20057;-83
2022/10/19 10:19:56;;;;;;;14.27;9.15;;;16.50;99.90;;;;;;4876889;29;20096;-83
2022/10/19 10:22:32;;;;;;;13.68;8.60;;;16.60;99.90;;;;;;4872538;29;20056;-82
2022/10/19 10:25:00;;;;;;;10.23;7.68;;;16.60;99.90;;;;;;4872415;29;20060;-83
2022/10/19 10:27:36;;;;;;;11.85;8.05;;;16.70;99.90;;;;;;4878481;29;20056;-83
2022/10/19 10:30:08;;;;;;;12.45;8.60;;;16.70;99.90;;;;;;4872884;29;20049;-83
2022/10/19 10:32:37;;;;;;;11.48;8.77;;;16.80;99.90;;;;;;4885344;29;20514;-83
2022/10/19 10:35:31;;;;;;;12.87;7.60;;;16.70;99.90;;;;;;4877030;29;20045;-85
2022/10/19 10:38:13;;;;;;;14.07;8.85;;;16.70;99.90;;;;;;4879924;29;20309;-83
2022/10/19 10:40:48;;;;;;;11.30;7.90;;;16.70;99.90;;;;;;4886144;29;20052;-84
2022/10/19 10:43:17;;;;;;;13.55;9.13;;;16.80;99.90;;;;;;4881716;29;20045;-84
2022/10/19 10:45:52;;;;;;;10.88;8.23;;;16.70;99.90;;;;;;4882796;29;20051;-83
2022/10/19 10:48:34;;;;;;;11.00;8.18;;;16.70;99.90;;;;;;4882203;29;20065;-85
2022/10/19 10:51:02;;;;;;;14.57;9.85;;;16.70;99.90;;;;;;4883551;29;20045;-84
2022/10/19 10:53:28;;;;;;;16.15;9.48;;;16.70;99.90;;;;;;4876340;29;20057;-80
2022/10/19 10:55:56;;;;;;;14.18;9.38;;;16.60;99.90;;;;;;4877781;29;20072;-83
2022/10/19 10:59:01;;;;;;;14.00;9.68;;;16.60;99.90;;;;;;4884735;29;20511;-84
2022/10/19 11:01:38;;;;;;;14.18;10.07;;;16.60;99.90;;;;;;4893509;29;20053;-83
2022/10/19 11:04:12;;;;;;;14.05;10.15;;;16.70;99.90;;;;;;4874267;29;20143;-82
2022/10/19 11:06:50;;;;;;;15.07;9.73;;;16.60;99.90;;;;;;4878773;29;20137;-85
2022/10/19 11:09:41;;;;;;;17.48;11.00;;;16.60;99.90;;;;;;4877295;29;20053;-84
2022/10/19 11:12:13;;;;;;;18.83;11.20;;;16.40;99.90;;;;;;4876550;29;20124;-85
2022/10/19 11:15:10;;;;;;;15.77;10.88;;;16.50;99.90;;;;;;4882915;29;20061;-83
2022/10/19 11:17:40;;;;;;;17.25;11.43;;;16.50;99.90;;;;;;4882110;29;22051;-85
2022/10/19 11:20:14;;;;;;;19.55;11.45;;;16.30;99.90;;;;;;4882626;29;20045;-84
2022/10/19 11:23:18;;;;;;;18.05;11.52;;;16.30;99.90;;;;;;4885571;29;20148;-81
2022/10/19 11:26:02;;;;;;;16.17;12.07;;;16.20;99.90;;;;;;4877201;29;20127;-84
2022/10/19 11:28:41;;;;;;;17.88;12.15;;;16.30;99.90;;;;;;4892361;29;20088;-82
2022/10/19 11:31:35;;;;;;;18.65;13.20;;;16.40;99.90;;;;;;4878729;29;20136;-85
2022/10/19 11:34:20;;;;;;;16.70;11.65;;;16.40;99.90;;;;;;4884073;29;20080;-85
2022/10/19 11:37:20;;;;;;;18.98;13.00;;;16.50;99.90;;;;;;4876198;29;20056;-84
2022/10/19 11:40:14;;;;;;;17.48;11.88;;;16.50;99.90;;;;;;4882472;29;20060;-83
2022/10/19 11:42:55;;;;;;;20.05;12.80;;;16.50;99.90;;;;;;4879913;29;20088;-84
2022/10/19 11:46:01;;;;;;;17.30;12.43;;;16.50;99.90;;;;;;4877166;29;20065;-84
2022/10/19 11:48:47;;;;;;;21.70;13.73;;;16.50;99.90;;;;;;4881651;29;20060;-84
2022/10/19 11:52:00;;;;;;;19.80;13.27;;;16.50;99.90;;;;;;4876941;29;20084;-85
2022/10/19 11:54:27;;;;;;;20.20;13.02;;;16.50;99.90;;;;;;4873737;29;20053;-84
2022/10/19 11:57:18;;;;;;;21.35;13.18;;;16.50;99.90;;;;;;4883534;29;20059;-82
2022/10/19 12:00:10;;;;;;;19.27;12.80;;;16.60;99.90;;;;;;4881893;29;20119;-83
2022/10/19 12:03:22;;;;;;;20.27;12.82;;;16.50;99.90;;;;;;4880386;29;20056;-83
2022/10/19 12:06:23;;;;;;;17.77;12.18;;;16.60;99.90;;;;;;4883298;29;20055;-82
2022/10/19 12:09:13;;;;;;;19.35;12.82;;;16.60;99.90;;;;;;4883537;29;20049;-84
2022/10/19 12:11:50;;;;;;;17.67;11.30;;;16.40;99.90;;;;;;4872791;29;20438;-83
2022/10/19 12:14:24;;;;;;;17.13;12.00;;;16.40;99.90;;;;;;4880669;29;20068;-82
2022/10/19 12:16:57;;;;;;;16.95;11.48;;;16.40;99.90;;;;;;4882396;29;20057;-83
2022/10/19 12:19:29;;;;;;;15.88;11.05;;;16.50;99.90;;;;;;4878100;29;20053;-83
2022/10/19 12:22:02;;;;;;;16.52;11.00;;;16.50;99.90;;;;;;4876173;29;20057;-82
2022/10/19 12:24:31;;;;;;;14.68;11.25;;;16.50;99.90;;;;;;4877706;29;20088;-82
2022/10/19 12:26:58;;;;;;;16.50;12.02;;;16.50;99.90;;;;;;4883976;29;20049;-83
2022/10/19 12:29:38;;;;;;;21.63;12.65;;;16.60;99.90;;;;;;4882663;29;20088;-83
2022/10/19 12:32:09;;;;;;;17.98;11.40;;;16.70;99.90;;;;;;4881716;29;20303;-82
2022/10/19 12:34:48;;;;;;;17.77;11.82;;;16.60;99.90;;;;;;4883962;29;20057;-81
2022/10/19 12:37:38;;;;;;;15.77;10.73;;;16.60;99.90;;;;;;4884028;29;20523;-82
2022/10/19 12:40:26;;;;;;;20.90;11.68;;;16.60;99.90;;;;;;4877725;29;20398;-81
2022/10/19 12:43:09;;;;;;;18.13;12.50;;;16.50;99.90;;;;;;4880099;29;20092;-83
2022/10/19 12:45:50;;;;;;;21.08;12.00;;;16.60;99.90;;;;;;4895289;29;20045;-80
2022/10/19 12:48:19;;;;;;;13.85;10.82;;;16.60;99.90;;;;;;4893545;29;20076;-81
2022/10/19 12:50:48;;;;;;;18.83;12.32;;;16.70;99.90;;;;;;4884042;29;20053;-83
2022/10/19 12:53:26;;;;;;;18.55;12.63;;;16.70;99.90;;;;;;4882393;29;20073;-83
2022/10/19 12:56:02;;;;;;;17.65;11.77;;;16.80;99.90;;;;;;4878312;29;20049;-84
2022/10/19 12:59:12;;;;;;;24.15;13.30;;;16.90;99.90;;;;;;4892258;29;20105;-83
2022/10/19 13:01:42;;;;;;;17.92;12.48;;;16.80;99.90;;;;;;4872807;29;20059;-83
2022/10/19 13:04:23;;;;;;;18.58;13.05;;;16.80;99.90;;;;;;4883035;29;20048;-83
2022/10/19 13:07:04;;;;;;;17.70;12.27;;;16.70;99.90;;;;;;4878817;29;20072;-83
2022/10/19 13:09:40;;;;;;;20.42;12.65;;;16.60;99.90;;;;;;4879098;29;20055;-82
2022/10/19 13:15:02;;;;;;;16.92;12.85;;;16.60;99.90;;;;;;4871730;29;20101;-83
2022/10/19 13:17:49;;;;;;;17.38;13.95;;;16.60;99.90;;;;;;4866824;29;20701;-83
2022/10/19 13:20:16;;;;;;;15.68;12.77;;;16.50;99.90;;;;;;4873261;29;20495;-82
2022/10/19 13:23:09;;;;;;;19.75;12.38;;;16.50;99.90;;;;;;4878863;29;20080;-84
2022/10/19 13:25:40;;;;;;;17.58;12.40;;;16.50;99.90;;;;;;4875350;29;20438;-83
2022/10/19 13:28:08;;;;;;;19.23;13.13;;;16.50;99.90;;;;;;4878642;29;20053;-81
2022/10/19 13:30:34;;;;;;;15.57;12.45;;;16.40;99.90;;;;;;4879693;29;20412;-80
2022/10/19 13:33:30;;;;;;;17.17;13.15;;;16.40;99.90;;;;;;4878160;29;20325;-82
2022/10/19 13:36:01;;;;;;;18.02;12.88;;;16.40;99.90;;;;;;4875878;29;20569;-81
2022/10/19 13:38:39;;;;;;;20.48;13.20;;;16.40;99.90;;;;;;4892472;29;20049;-83
2022/10/19 13:41:26;;;;;;;16.63;13.00;;;16.40;99.90;;;;;;4883512;29;20081;-82
2022/10/19 13:44:09;;;;;;;18.23;14.00;;;16.30;99.90;;;;;;4880827;29;20045;-83
2022/10/19 13:46:52;;;;;;;19.20;14.07;;;16.30;99.90;;;;;;4875591;29;20140;-84
2022/10/19 13:49:37;;;;;;;19.58;13.35;;;16.30;99.90;;;;;;4880589;29;20048;-84
2022/10/19 13:52:22;;;;;;;17.05;12.35;;;16.20;99.90;;;;;;4875754;29;20144;-82
2022/10/19 13:55:22;;;;;;;20.27;13.40;;;16.20;99.90;;;;;;4877714;29;20060;-82
2022/10/19 13:58:26;;;;;;;17.20;13.05;;;16.20;99.90;;;;;;4880576;29;20053;-83
2022/10/19 14:01:25;;;;;;;16.83;12.57;;;16.30;99.90;;;;;;4881122;29;20052;-83
2022/10/19 14:04:20;;;;;;;18.60;14.33;;;16.40;99.90;;;;;;4874415;29;20059;-81
2022/10/19 14:06:53;;;;;;;18.77;13.55;;;16.50;99.90;;;;;;4878228;29;20049;-83
2022/10/19 14:09:46;;;;;;;21.50;14.23;;;16.50;99.90;;;;;;4884820;29;20071;-84
2022/10/19 14:12:27;;;;;;;19.42;13.85;;;16.60;99.90;;;;;;4885720;29;20068;-82
2022/10/19 14:14:54;;;;;;;19.92;13.95;;;16.60;99.90;;;;;;4882687;29;20068;-83
2022/10/19 14:17:28;;;;;;;18.95;13.63;;;16.60;99.90;;;;;;4890520;29;20545;-83
2022/10/19 14:19:56;;;;;;;21.00;15.45;;;16.70;99.90;;;;;;4884704;29;20056;-81
2022/10/19 14:22:30;;;;;;;22.17;15.38;;;16.70;99.90;;;;;;4887987;29;20158;-81
2022/10/19 14:25:01;;;;;;;23.70;15.15;;;16.70;99.90;;;;;;4882188;29;20128;-82
2022/10/19 14:27:29;;;;;;;22.38;14.32;;;16.70;99.90;;;;;;4887374;29;20045;-83
2022/10/19 14:29:57;;;;;;;19.98;13.30;;;16.70;99.90;;;;;;4882909;29;20048;-82
2022/10/19 14:32:28;;;;;;;21.20;14.60;;;16.70;99.90;;;;;;4883848;29;20079;-82
2022/10/19 14:35:02;;;;;;;20.63;14.38;;;16.70;99.90;;;;;;4878797;29;20083;-83
2022/10/19 14:37:30;;;;;;;20.77;14.77;;;16.60;99.90;;;;;;4886202;29;20061;-81
2022/10/19 14:40:20;;;;;;;19.40;13.73;;;16.60;99.90;;;;;;4881471;29;20053;-82
2022/10/19 14:42:55;;;;;;;17.35;12.52;;;16.60;99.90;;;;;;4877561;29;20053;-82
2022/10/19 14:45:28;;;;;;;17.73;11.90;;;16.60;99.90;;;;;;4879872;29;20052;-81
2022/10/19 14:48:03;;;;;;;18.50;12.80;;;16.70;99.90;;;;;;4886709;29;20056;-82
2022/10/19 14:50:38;;;;;;;18.48;12.98;;;16.70;99.90;;;;;;4877815;29;20053;-82
2022/10/19 14:55:51;;;;;;;18.33;12.93;;;16.70;99.90;;;;;;4895259;29;20060;-79
2022/10/19 14:58:19;;;;;;;17.77;12.73;;;16.60;99.90;;;;;;4895774;29;20075;-77
2022/10/19 15:00:48;;;;;;;18.83;13.05;;;16.70;99.90;;;;;;4898065;29;20123;-77
2022/10/19 15:03:33;;;;;;;20.00;13.55;;;16.70;99.90;;;;;;4894642;29;20048;-77
2022/10/19 15:06:05;;;;;;;18.23;12.48;;;16.70;99.90;;;;;;4887652;29;20059;-77
2022/10/19 15:08:38;;;;;;;17.02;12.55;;;16.70;99.90;;;;;;4876755;29;20141;-79
2022/10/19 15:11:07;;;;;;;20.10;12.93;;;16.80;99.90;;;;;;4877603;29;20507;-79
2022/10/19 15:13:40;;;;;;;20.58;13.95;;;16.80;99.90;;;;;;4886508;29;20053;-77
2022/10/19 15:16:40;;;;;;;20.52;12.40;;;16.80;99.90;;;;;;4881371;29;20495;-78
2022/10/19 15:19:22;;;;;;;18.85;13.77;;;16.70;99.90;;;;;;4873693;29;20042;-76
2022/10/19 15:22:19;;;;;;;16.15;11.80;;;16.80;99.90;;;;;;4878728;29;20056;-76
2022/10/19 15:24:59;;;;;;;19.50;12.38;;;16.70;99.90;;;;;;4869104;29;20088;-77
2022/10/19 15:27:40;;;;;;;18.13;11.77;;;16.60;99.90;;;;;;4883230;29;20486;-77
2022/10/19 15:30:16;;;;;;;20.27;13.48;;;16.60;99.90;;;;;;4888377;29;20052;-77
2022/10/19 15:32:54;;;;;;;21.98;12.25;;;16.50;99.90;;;;;;4901963;29;20612;-78
2022/10/19 15:35:36;;;;;;;16.88;11.25;;;16.50;99.90;;;;;;4883800;29;20056;-78
2022/10/19 15:38:08;;;;;;;16.20;11.82;;;16.50;99.90;;;;;;4894605;29;20067;-76
2022/10/19 15:40:41;;;;;;;17.92;12.18;;;16.50;99.90;;;;;;4890928;29;20060;-79
2022/10/19 15:43:31;;;;;;;20.20;13.68;;;16.40;99.90;;;;;;4888717;29;20529;-77
2022/10/19 15:45:58;;;;;;;18.92;13.20;;;16.40;99.90;;;;;;4880117;29;20048;-76
2022/10/19 15:48:25;;;;;;;21.77;13.90;;;16.30;99.90;;;;;;4892292;29;20132;-76
2022/10/19 15:50:53;;;;;;;16.98;12.05;;;16.30;99.90;;;;;;4889020;29;20049;-77
2022/10/19 15:53:20;;;;;;;19.63;11.80;;;16.30;99.90;;;;;;4883061;29;20044;-78
2022/10/19 15:55:48;;;;;;;20.63;12.82;;;16.30;99.90;;;;;;4885661;29;20049;-77
2022/10/19 15:58:15;;;;;;;19.98;12.65;;;16.30;99.90;;;;;;4891804;29;20499;-76
2022/10/19 16:00:41;;;;;;;23.67;13.15;;;16.30;99.90;;;;;;4886207;29;20052;-77
2022/10/19 16:03:08;;;;;;;21.77;12.90;;;16.30;99.90;;;;;;4882052;29;20127;-77
2022/10/19 16:05:36;;;;;;;15.77;12.05;;;16.30;99.90;;;;;;4881723;29;20053;-78
2022/10/19 16:08:04;;;;;;;17.50;12.55;;;16.20;99.90;;;;;;4889622;29;20075;-78
2022/10/19 16:10:37;;;;;;;20.25;12.93;;;16.20;99.90;;;;;;4881414;29;20403;-76
2022/10/19 16:13:03;;;;;;;15.90;11.60;;;16.10;99.90;;;;;;4882481;29;20052;-81
2022/10/19 16:15:30;;;;;;;19.27;12.45;;;16.10;99.90;;;;;;4891081;29;20048;-76
2022/10/19 16:17:59;;;;;;;21.20;12.93;;;16.10;99.90;;;;;;4882442;29;20495;-77
2022/10/19 16:20:27;;;;;;;17.60;12.55;;;16.10;99.90;;;;;;4877680;29;20068;-78
2022/10/19 16:22:55;;;;;;;18.77;12.80;;;16.00;99.90;;;;;;4880087;29;20052;-76
2022/10/19 16:25:21;;;;;;;19.08;13.63;;;16.00;99.90;;;;;;4882111;29;20507;-78
2022/10/19 16:27:48;;;;;;;18.23;13.10;;;15.90;99.90;;;;;;4882973;29;20055;-77
2022/10/19 16:30:15;;;;;;;21.33;13.27;;;15.90;99.90;;;;;;4870921;29;20410;-76
2022/10/19 16:32:42;;;;;;;18.58;14.30;;;15.90;99.90;;;;;;4890481;29;20526;-76
2022/10/19 16:35:09;;;;;;;24.67;16.05;;;15.90;99.90;;;;;;4880204;29;20142;-78
2022/10/19 16:37:35;;;;;;;29.00;15.73;;;15.90;99.90;;;;;;4880370;29;20059;-76
2022/10/19 16:40:04;;;;;;;23.83;16.42;;;15.90;99.90;;;;;;4879009;29;20056;-78
2022/10/19 16:42:31;;;;;;;21.65;14.30;;;15.80;99.90;;;;;;4887376;29;20124;-77
2022/10/19 16:44:58;;;;;;;24.58;16.02;;;15.80;99.90;;;;;;4879393;29;20049;-76
2022/10/19 16:47:25;;;;;;;25.73;16.48;;;15.80;99.90;;;;;;4876427;29;20048;-79
2022/10/19 16:49:58;;;;;;;26.83;18.60;;;15.70;99.90;;;;;;4890746;29;20056;-77
2022/10/19 16:52:30;;;;;;;24.52;16.50;;;15.70;99.90;;;;;;4887402;29;20052;-76
2022/10/19 16:54:58;;;;;;;22.85;16.00;;;15.70;99.90;;;;;;4874521;29;20060;-78
2022/10/19 16:57:25;;;;;;;26.75;17.92;;;15.60;99.90;;;;;;4879271;29;20052;-78
2022/10/19 16:59:52;;;;;;;24.83;18.67;;;15.60;99.90;;;;;;4879904;29;20049;-78
2022/10/19 17:02:24;;;;;;;26.15;18.23;;;15.50;99.90;;;;;;4879035;29;20063;-76
2022/10/19 17:04:51;;;;;;;41.05;26.05;;;15.50;99.90;;;;;;4875764;29;20088;-78
2022/10/19 17:07:18;;;;;;;37.30;22.02;;;15.40;99.90;;;;;;4887496;29;20396;-76
2022/10/19 17:09:45;;;;;;;37.13;22.77;;;15.40;99.90;;;;;;4873178;29;20063;-76
2022/10/19 17:12:16;;;;;;;29.80;20.17;;;15.40;99.90;;;;;;4877551;29;20104;-78
2022/10/19 17:14:43;;;;;;;29.35;19.20;;;15.40;99.90;;;;;;4870400;29;20423;-77
2022/10/19 17:17:10;;;;;;;27.48;19.48;;;15.30;99.90;;;;;;4884610;29;20139;-78
2022/10/19 17:19:37;;;;;;;26.13;17.08;;;15.30;99.90;;;;;;4882291;29;20047;-76
2022/10/19 17:22:04;;;;;;;25.95;16.05;;;15.30;99.90;;;;;;4878897;29;20041;-77
2022/10/19 17:24:31;;;;;;;26.73;17.10;;;15.30;99.90;;;;;;4880839;29;20044;-80
2022/10/19 17:27:00;;;;;;;29.45;16.55;;;15.20;99.90;;;;;;4883039;29;20108;-79
2022/10/19 17:29:27;;;;;;;22.63;17.77;;;15.20;99.90;;;;;;4882587;29;20060;-79
2022/10/19 17:31:54;;;;;;;23.55;16.10;;;15.20;99.90;;;;;;4874429;29;20052;-80
2022/10/19 17:34:20;;;;;;;21.00;16.38;;;15.20;99.90;;;;;;4882264;29;20518;-77
2022/10/19 17:36:47;;;;;;;22.20;15.35;;;15.10;99.90;;;;;;4879412;29;20077;-77
2022/10/19 17:39:19;;;;;;;23.45;13.95;;;15.10;99.90;;;;;;4879520;29;20459;-78
2022/10/19 17:41:53;;;;;;;19.60;14.10;;;15.10;99.90;;;;;;4883911;29;20127;-77
2022/10/19 17:44:20;;;;;;;19.42;14.05;;;15.10;99.90;;;;;;4890734;29;20104;-78
2022/10/19 17:46:48;;;;;;;16.33;13.25;;;15.10;99.90;;;;;;4879357;29;20046;-78
2022/10/19 17:49:15;;;;;;;20.02;13.05;;;15.00;99.90;;;;;;4878526;29;20045;-79
2022/10/19 17:51:42;;;;;;;20.45;12.48;;;15.10;99.90;;;;;;4878815;29;20076;-80
2022/10/19 17:54:11;;;;;;;29.65;13.15;;;15.10;99.90;;;;;;4885639;29;20079;-80
2022/10/19 17:56:39;;;;;;;17.30;12.40;;;15.10;99.90;;;;;;4882112;29;20053;-80
2022/10/19 17:59:07;;;;;;;16.25;12.23;;;15.00;99.90;;;;;;4881102;29;20391;-76
2022/10/19 18:01:35;;;;;;;17.35;12.70;;;15.10;99.90;;;;;;4885581;29;20078;-76
2022/10/19 18:04:03;;;;;;;17.58;12.60;;;15.10;99.90;;;;;;4884787;29;20049;-76
2022/10/19 18:06:33;;;;;;;22.17;13.95;;;15.20;99.90;;;;;;4875682;29;20507;-80
2022/10/19 18:09:02;;;;;;;26.80;15.60;;;15.20;99.90;;;;;;4880952;29;20053;-80
2022/10/19 18:11:33;;;;;;;22.52;13.30;;;15.20;99.90;;;;;;4891180;29;20041;-79
2022/10/19 18:14:00;;;;;;;19.50;12.68;;;15.30;99.90;;;;;;4884845;29;20714;-78
2022/10/19 18:16:33;;;;;;;19.25;13.57;;;15.30;99.90;;;;;;4884775;29;20048;-81
2022/10/19 18:19:01;;;;;;;17.20;13.00;;;15.30;99.90;;;;;;4883119;29;20563;-80
2022/10/19 18:21:31;;;;;;;20.67;12.95;;;15.40;99.90;;;;;;4891335;29;20067;-80
2022/10/19 18:23:59;;;;;;;18.53;12.03;;;15.40;99.90;;;;;;4880706;29;20044;-79
2022/10/19 18:26:28;;;;;;;22.42;12.13;;;15.40;99.90;;;;;;4882811;29;20048;-80
2022/10/19 18:28:56;;;;;;;18.92;13.68;;;15.40;99.90;;;;;;4888733;29;20049;-81
2022/10/19 18:31:28;;;;;;;19.80;12.55;;;15.40;99.90;;;;;;4878217;29;20519;-79
2022/10/19 18:34:00;;;;;;;16.70;13.30;;;15.40;99.90;;;;;;4886065;29;20418;-81
2022/10/19 18:36:27;;;;;;;19.38;13.63;;;15.50;99.90;;;;;;4882608;29;20053;-78
2022/10/19 18:38:56;;;;;;;14.65;11.93;;;15.40;99.90;;;;;;4882464;29;20059;-76
2022/10/19 18:41:23;;;;;;;18.20;13.65;;;15.40;99.90;;;;;;4870978;29;20049;-78
2022/10/19 18:43:52;;;;;;;15.00;11.40;;;15.50;99.90;;;;;;4872829;29;20430;-77
2022/10/19 18:46:21;;;;;;;15.10;11.23;;;15.50;99.90;;;;;;4883796;29;20062;-78
2022/10/19 18:48:48;;;;;;;16.95;11.40;;;15.50;99.90;;;;;;4878666;29;20056;-78
2022/10/19 18:51:16;;;;;;;15.57;11.25;;;15.50;99.90;;;;;;4877073;29;20521;-80
2022/10/19 18:53:44;;;;;;;17.65;12.05;;;15.50;99.90;;;;;;4885798;29;20127;-79
2022/10/19 18:56:13;;;;;;;14.75;11.95;;;15.50;99.90;;;;;;4877235;29;20059;-77
2022/10/19 18:58:40;;;;;;;17.88;12.43;;;15.50;99.90;;;;;;4881628;29;20057;-80
2022/10/19 19:01:11;;;;;;;19.73;13.30;;;15.60;99.90;;;;;;4880040;29;20051;-77
2022/10/19 19:03:42;;;;;;;17.95;12.57;;;15.60;99.90;;;;;;4879344;29;20049;-76
2022/10/19 19:06:12;;;;;;;;;;;15.60;99.90;;;;;;4875968;29;20056;-77
2022/10/19 19:08:39;;;;;;;18.77;11.93;;;15.60;99.90;;;;;;4878042;29;19928;-79
2022/10/19 19:11:20;;;;;;;16.88;11.35;;;15.60;99.90;;;;;;4883769;29;20057;-76
2022/10/19 19:13:53;;;;;;;16.02;12.65;;;15.70;99.90;;;;;;4887710;29;20510;-79
2022/10/19 19:16:20;;;;;;;21.75;13.20;;;15.70;99.90;;;;;;4880852;29;20146;-76
2022/10/19 19:18:47;;;;;;;20.35;13.60;;;15.70;99.90;;;;;;4878119;29;20703;-79
2022/10/19 19:21:20;;;;;;;18.27;13.77;;;15.70;99.90;;;;;;4879074;29;20517;-76
2022/10/19 19:23:48;;;;;;;26.30;18.35;;;15.70;99.90;;;;;;4885797;29;20517;-80